Auburndale, Florida
Current Conditions -  °F | °C
As of 6:53 AM on Thursday 23 Oct 2014 (Local Time) from KGIF Reporting Station
Clear Clear  
Wind Chill: 62°   Ceiling: Unl
Heat Index: 62°   Visibility: 10mi
Dew Point: 57°   Wind: 8mph
Humidity: 84%   Direction: 10°N
Pressure: 29.99"   Gusts: NA
Location:  28.06°N, 81.78°W
Report Text: KGIF 231053Z AUTO 01007KT 10SM CLR 17/14 A2999 RMK AO2 SLP152 T01670139
Loading
Personal Weather Stations






























Interactive Weather Map New forecast layout! Learn more

10-Day Weather Forecast

Advertisements
Track Severe Weather on mobile